sensor_id;sensor_type;location;lat;lon;timestamp;P1;durP1;ratioP1;P2;durP2;ratioP2
20344;SDS011;10330;48.816;9.278;2023-02-04T00:00:26;3.63;;;3.08;;
20344;SDS011;10330;48.816;9.278;2023-02-04T00:02:58;6.88;;;3.88;;
20344;SDS011;10330;48.816;9.278;2023-02-04T00:05:34;4.80;;;3.92;;
20344;SDS011;10330;48.816;9.278;2023-02-04T00:08:10;6.55;;;3.50;;
20344;SDS011;10330;48.816;9.278;2023-02-04T00:10:37;4.65;;;3.30;;
20344;SDS011;10330;48.816;9.278;2023-02-04T00:13:12;3.20;;;3.00;;
20344;SDS011;10330;48.816;9.278;2023-02-04T00:15:45;3.28;;;2.97;;
20344;SDS011;10330;48.816;9.278;2023-02-04T00:21:23;4.75;;;2.65;;
20344;SDS011;10330;48.816;9.278;2023-02-04T00:24:03;3.15;;;2.83;;
20344;SDS011;10330;48.816;9.278;2023-02-04T00:26:29;3.35;;;3.05;;
20344;SDS011;10330;48.816;9.278;2023-02-04T00:28:56;3.70;;;3.05;;
20344;SDS011;10330;48.816;9.278;2023-02-04T00:31:25;3.53;;;3.22;;
20344;SDS011;10330;48.816;9.278;2023-02-04T00:34:00;3.00;;;2.80;;
20344;SDS011;10330;48.816;9.278;2023-02-04T00:39:02;2.72;;;2.53;;
20344;SDS011;10330;48.816;9.278;2023-02-04T00:41:29;3.28;;;2.85;;
20344;SDS011;10330;48.816;9.278;2023-02-04T00:43:55;2.75;;;2.50;;
20344;SDS011;10330;48.816;9.278;2023-02-04T00:46:21;3.92;;;3.13;;
20344;SDS011;10330;48.816;9.278;2023-02-04T00:48:47;4.90;;;3.97;;
20344;SDS011;10330;48.816;9.278;2023-02-04T00:51:13;2.78;;;2.58;;
20344;SDS011;10330;48.816;9.278;2023-02-04T00:53:40;2.85;;;2.60;;
20344;SDS011;10330;48.816;9.278;2023-02-04T00:56:06;1.88;;;1.77;;
20344;SDS011;10330;48.816;9.278;2023-02-04T00:58:32;2.55;;;2.35;;
20344;SDS011;10330;48.816;9.278;2023-02-04T01:00:58;2.00;;;1.90;;
20344;SDS011;10330;48.816;9.278;2023-02-04T01:03:24;2.83;;;2.22;;
20344;SDS011;10330;48.816;9.278;2023-02-04T01:05:50;2.03;;;1.92;;
20344;SDS011;10330;48.816;9.278;2023-02-04T01:08:17;2.20;;;2.10;;
20344;SDS011;10330;48.816;9.278;2023-02-04T01:10:46;3.10;;;2.40;;
20344;SDS011;10330;48.816;9.278;2023-02-04T01:13:12;9.40;;;2.42;;
20344;SDS011;10330;48.816;9.278;2023-02-04T01:15:40;2.40;;;1.90;;
20344;SDS011;10330;48.816;9.278;2023-02-04T01:18:07;3.92;;;2.15;;
20344;SDS011;10330;48.816;9.278;2023-02-04T01:20:34;2.00;;;1.80;;
20344;SDS011;10330;48.816;9.278;2023-02-04T01:23:00;5.03;;;2.35;;
20344;SDS011;10330;48.816;9.278;2023-02-04T01:25:27;7.75;;;2.78;;
20344;SDS011;10330;48.816;9.278;2023-02-04T01:28:01;4.45;;;2.75;;
20344;SDS011;10330;48.816;9.278;2023-02-04T01:30:31;4.55;;;2.80;;
20344;SDS011;10330;48.816;9.278;2023-02-04T01:32:57;7.82;;;2.35;;
20344;SDS011;10330;48.816;9.278;2023-02-04T01:35:23;4.68;;;1.95;;
20344;SDS011;10330;48.816;9.278;2023-02-04T01:37:51;4.30;;;2.17;;
20344;SDS011;10330;48.816;9.278;2023-02-04T01:40:17;3.53;;;2.20;;
20344;SDS011;10330;48.816;9.278;2023-02-04T01:42:43;2.53;;;2.15;;
20344;SDS011;10330;48.816;9.278;2023-02-04T01:45:10;2.45;;;2.22;;
20344;SDS011;10330;48.816;9.278;2023-02-04T01:47:37;2.75;;;2.40;;
20344;SDS011;10330;48.816;9.278;2023-02-04T01:50:05;2.50;;;2.30;;
20344;SDS011;10330;48.816;9.278;2023-02-04T01:52:34;9.38;;;2.50;;
20344;SDS011;10330;48.816;9.278;2023-02-04T01:55:10;3.38;;;2.08;;
20344;SDS011;10330;48.816;9.278;2023-02-04T01:57:56;2.90;;;2.50;;
20344;SDS011;10330;48.816;9.278;2023-02-04T02:00:30;5.80;;;2.55;;
20344;SDS011;10330;48.816;9.278;2023-02-04T02:02:57;8.20;;;2.53;;
20344;SDS011;10330;48.816;9.278;2023-02-04T02:05:26;1.83;;;1.67;;
20344;SDS011;10330;48.816;9.278;2023-02-04T02:08:04;2.55;;;2.35;;
20344;SDS011;10330;48.816;9.278;2023-02-04T02:10:33;4.45;;;1.98;;
20344;SDS011;10330;48.816;9.278;2023-02-04T02:13:04;2.00;;;1.90;;
20344;SDS011;10330;48.816;9.278;2023-02-04T02:15:37;2.67;;;1.80;;
20344;SDS011;10330;48.816;9.278;2023-02-04T02:18:04;3.53;;;1.98;;
20344;SDS011;10330;48.816;9.278;2023-02-04T02:20:31;2.65;;;1.52;;
20344;SDS011;10330;48.816;9.278;2023-02-04T02:23:01;17.02;;;1.90;;
20344;SDS011;10330;48.816;9.278;2023-02-04T02:25:35;4.93;;;1.95;;
20344;SDS011;10330;48.816;9.278;2023-02-04T02:28:04;6.88;;;1.65;;
20344;SDS011;10330;48.816;9.278;2023-02-04T02:30:34;2.20;;;1.48;;
20344;SDS011;10330;48.816;9.278;2023-02-04T02:33:02;2.00;;;1.90;;
20344;SDS011;10330;48.816;9.278;2023-02-04T02:35:30;7.03;;;1.95;;
20344;SDS011;10330;48.816;9.278;2023-02-04T02:37:56;6.45;;;1.77;;
20344;SDS011;10330;48.816;9.278;2023-02-04T02:40:23;3.15;;;1.40;;
20344;SDS011;10330;48.816;9.278;2023-02-04T02:42:50;4.10;;;1.92;;
20344;SDS011;10330;48.816;9.278;2023-02-04T02:45:21;4.07;;;1.73;;
20344;SDS011;10330;48.816;9.278;2023-02-04T02:47:56;2.22;;;1.75;;
20344;SDS011;10330;48.816;9.278;2023-02-04T02:50:28;4.30;;;1.60;;
20344;SDS011;10330;48.816;9.278;2023-02-04T02:53:00;4.43;;;1.45;;
20344;SDS011;10330;48.816;9.278;2023-02-04T02:55:30;7.22;;;1.75;;
20344;SDS011;10330;48.816;9.278;2023-02-04T02:57:58;6.45;;;1.73;;
20344;SDS011;10330;48.816;9.278;2023-02-04T03:00:26;8.35;;;1.52;;
20344;SDS011;10330;48.816;9.278;2023-02-04T03:03:13;11.15;;;1.90;;
20344;SDS011;10330;48.816;9.278;2023-02-04T03:05:54;6.15;;;2.15;;
20344;SDS011;10330;48.816;9.278;2023-02-04T03:08:32;10.45;;;2.08;;
20344;SDS011;10330;48.816;9.278;2023-02-04T03:11:01;3.28;;;1.75;;
20344;SDS011;10330;48.816;9.278;2023-02-04T03:13:30;3.13;;;1.90;;
20344;SDS011;10330;48.816;9.278;2023-02-04T03:15:58;8.60;;;2.33;;
20344;SDS011;10330;48.816;9.278;2023-02-04T03:18:27;7.78;;;2.30;;
20344;SDS011;10330;48.816;9.278;2023-02-04T03:20:55;4.00;;;1.80;;
20344;SDS011;10330;48.816;9.278;2023-02-04T03:23:23;9.40;;;2.13;;
20344;SDS011;10330;48.816;9.278;2023-02-04T03:25:52;14.65;;;2.40;;
20344;SDS011;10330;48.816;9.278;2023-02-04T03:28:18;10.80;;;2.42;;
20344;SDS011;10330;48.816;9.278;2023-02-04T03:30:45;11.13;;;2.20;;
20344;SDS011;10330;48.816;9.278;2023-02-04T03:33:18;9.35;;;2.47;;
20344;SDS011;10330;48.816;9.278;2023-02-04T03:35:44;12.15;;;2.30;;
20344;SDS011;10330;48.816;9.278;2023-02-04T03:38:10;8.48;;;1.83;;
20344;SDS011;10330;48.816;9.278;2023-02-04T03:40:36;8.80;;;3.15;;
20344;SDS011;10330;48.816;9.278;2023-02-04T03:43:03;11.50;;;2.30;;
20344;SDS011;10330;48.816;9.278;2023-02-04T03:45:34;10.18;;;2.50;;
20344;SDS011;10330;48.816;9.278;2023-02-04T03:48:01;14.35;;;2.47;;
20344;SDS011;10330;48.816;9.278;2023-02-04T03:50:27;8.88;;;2.22;;
20344;SDS011;10330;48.816;9.278;2023-02-04T03:52:53;3.90;;;2.05;;
20344;SDS011;10330;48.816;9.278;2023-02-04T03:55:19;13.93;;;2.95;;
20344;SDS011;10330;48.816;9.278;2023-02-04T03:57:45;3.85;;;2.28;;
20344;SDS011;10330;48.816;9.278;2023-02-04T04:00:12;9.57;;;2.20;;
20344;SDS011;10330;48.816;9.278;2023-02-04T04:02:39;2.60;;;1.77;;
20344;SDS011;10330;48.816;9.278;2023-02-04T04:05:07;15.30;;;2.72;;
20344;SDS011;10330;48.816;9.278;2023-02-04T04:07:39;10.27;;;1.95;;
20344;SDS011;10330;48.816;9.278;2023-02-04T04:10:05;4.13;;;2.58;;
20344;SDS011;10330;48.816;9.278;2023-02-04T04:12:32;6.85;;;2.35;;
20344;SDS011;10330;48.816;9.278;2023-02-04T04:14:58;5.63;;;1.83;;
20344;SDS011;10330;48.816;9.278;2023-02-04T04:17:24;4.43;;;1.83;;
20344;SDS011;10330;48.816;9.278;2023-02-04T04:19:52;5.43;;;1.88;;
20344;SDS011;10330;48.816;9.278;2023-02-04T04:22:20;2.60;;;1.60;;
20344;SDS011;10330;48.816;9.278;2023-02-04T04:24:46;3.70;;;2.05;;
20344;SDS011;10330;48.816;9.278;2023-02-04T04:27:12;8.02;;;1.73;;
20344;SDS011;10330;48.816;9.278;2023-02-04T04:29:38;8.05;;;1.92;;
20344;SDS011;10330;48.816;9.278;2023-02-04T04:32:04;6.72;;;1.90;;
20344;SDS011;10330;48.816;9.278;2023-02-04T04:34:31;4.30;;;2.25;;
20344;SDS011;10330;48.816;9.278;2023-02-04T04:36:57;4.43;;;1.90;;
20344;SDS011;10330;48.816;9.278;2023-02-04T04:39:23;6.93;;;2.55;;
20344;SDS011;10330;48.816;9.278;2023-02-04T04:41:50;6.10;;;1.98;;
20344;SDS011;10330;48.816;9.278;2023-02-04T04:44:17;4.38;;;1.80;;
20344;SDS011;10330;48.816;9.278;2023-02-04T04:46:43;7.78;;;1.88;;
20344;SDS011;10330;48.816;9.278;2023-02-04T04:49:09;12.63;;;1.95;;
20344;SDS011;10330;48.816;9.278;2023-02-04T04:51:36;3.70;;;1.60;;
20344;SDS011;10330;48.816;9.278;2023-02-04T04:54:03;8.70;;;1.58;;
20344;SDS011;10330;48.816;9.278;2023-02-04T04:56:29;6.95;;;2.10;;
20344;SDS011;10330;48.816;9.278;2023-02-04T04:58:55;9.23;;;2.40;;
20344;SDS011;10330;48.816;9.278;2023-02-04T05:01:23;4.95;;;2.33;;
20344;SDS011;10330;48.816;9.278;2023-02-04T05:03:49;9.18;;;2.95;;
20344;SDS011;10330;48.816;9.278;2023-02-04T05:06:15;4.45;;;2.00;;
20344;SDS011;10330;48.816;9.278;2023-02-04T05:08:41;7.30;;;2.20;;
20344;SDS011;10330;48.816;9.278;2023-02-04T05:11:07;3.03;;;2.10;;
20344;SDS011;10330;48.816;9.278;2023-02-04T05:13:34;12.75;;;3.17;;
20344;SDS011;10330;48.816;9.278;2023-02-04T05:16:00;5.45;;;2.17;;
20344;SDS011;10330;48.816;9.278;2023-02-04T05:18:26;14.05;;;2.95;;
20344;SDS011;10330;48.816;9.278;2023-02-04T05:20:52;9.45;;;3.08;;
20344;SDS011;10330;48.816;9.278;2023-02-04T05:23:18;5.05;;;2.72;;
20344;SDS011;10330;48.816;9.278;2023-02-04T05:25:45;3.83;;;2.65;;
20344;SDS011;10330;48.816;9.278;2023-02-04T05:28:11;8.00;;;3.00;;
20344;SDS011;10330;48.816;9.278;2023-02-04T05:30:37;7.93;;;3.13;;
20344;SDS011;10330;48.816;9.278;2023-02-04T05:33:04;2.85;;;2.55;;
20344;SDS011;10330;48.816;9.278;2023-02-04T05:35:30;9.98;;;3.15;;
20344;SDS011;10330;48.816;9.278;2023-02-04T05:37:56;8.60;;;3.33;;
20344;SDS011;10330;48.816;9.278;2023-02-04T05:40:22;8.68;;;2.90;;
20344;SDS011;10330;48.816;9.278;2023-02-04T05:42:49;8.05;;;2.85;;
20344;SDS011;10330;48.816;9.278;2023-02-04T05:45:15;7.88;;;2.97;;
20344;SDS011;10330;48.816;9.278;2023-02-04T05:47:43;5.45;;;2.75;;
20344;SDS011;10330;48.816;9.278;2023-02-04T05:50:10;4.90;;;2.85;;
20344;SDS011;10330;48.816;9.278;2023-02-04T05:52:36;7.47;;;2.83;;
20344;SDS011;10330;48.816;9.278;2023-02-04T05:55:03;6.47;;;3.28;;
20344;SDS011;10330;48.816;9.278;2023-02-04T05:57:29;7.35;;;2.85;;
20344;SDS011;10330;48.816;9.278;2023-02-04T05:59:55;6.97;;;3.33;;
20344;SDS011;10330;48.816;9.278;2023-02-04T06:05:16;8.70;;;4.07;;
20344;SDS011;10330;48.816;9.278;2023-02-04T06:07:43;6.10;;;3.03;;
20344;SDS011;10330;48.816;9.278;2023-02-04T06:10:09;11.90;;;3.78;;
20344;SDS011;10330;48.816;9.278;2023-02-04T06:12:36;9.32;;;3.53;;
20344;SDS011;10330;48.816;9.278;2023-02-04T06:15:03;12.30;;;4.10;;
20344;SDS011;10330;48.816;9.278;2023-02-04T06:17:30;13.32;;;4.15;;
20344;SDS011;10330;48.816;9.278;2023-02-04T06:19:57;9.68;;;3.25;;
20344;SDS011;10330;48.816;9.278;2023-02-04T06:22:23;18.45;;;4.97;;
20344;SDS011;10330;48.816;9.278;2023-02-04T06:24:50;9.68;;;4.60;;
20344;SDS011;10330;48.816;9.278;2023-02-04T06:27:19;11.88;;;3.60;;
20344;SDS011;10330;48.816;9.278;2023-02-04T06:29:51;6.40;;;4.22;;
20344;SDS011;10330;48.816;9.278;2023-02-04T06:32:19;10.80;;;4.05;;
20344;SDS011;10330;48.816;9.278;2023-02-04T06:34:46;12.02;;;3.70;;
20344;SDS011;10330;48.816;9.278;2023-02-04T06:39:48;12.10;;;4.30;;
20344;SDS011;10330;48.816;9.278;2023-02-04T06:45:04;14.65;;;4.25;;
20344;SDS011;10330;48.816;9.278;2023-02-04T06:48:21;15.35;;;4.13;;
20344;SDS011;10330;48.816;9.278;2023-02-04T07:09:55;11.45;;;4.53;;
20344;SDS011;10330;48.816;9.278;2023-02-04T07:16:17;6.45;;;4.20;;
20344;SDS011;10330;48.816;9.278;2023-02-04T07:18:43;31.02;;;4.65;;
20344;SDS011;10330;48.816;9.278;2023-02-04T07:29:13;13.27;;;3.70;;
20344;SDS011;10330;48.816;9.278;2023-02-04T07:32:55;15.57;;;3.42;;
20344;SDS011;10330;48.816;9.278;2023-02-04T07:50:26;11.23;;;3.65;;
20344;SDS011;10330;48.816;9.278;2023-02-04T07:53:08;12.88;;;3.53;;
20344;SDS011;10330;48.816;9.278;2023-02-04T07:56:42;10.73;;;3.40;;
20344;SDS011;10330;48.816;9.278;2023-02-04T08:00:35;12.50;;;4.28;;
20344;SDS011;10330;48.816;9.278;2023-02-04T08:04:40;10.43;;;3.78;;
20344;SDS011;10330;48.816;9.278;2023-02-04T08:08:21;6.55;;;3.75;;
20344;SDS011;10330;48.816;9.278;2023-02-04T08:10:47;11.52;;;4.70;;
20344;SDS011;10330;48.816;9.278;2023-02-04T08:13:13;11.00;;;4.28;;
20344;SDS011;10330;48.816;9.278;2023-02-04T08:15:41;5.28;;;3.67;;
20344;SDS011;10330;48.816;9.278;2023-02-04T08:18:07;14.55;;;3.85;;
20344;SDS011;10330;48.816;9.278;2023-02-04T08:20:33;12.07;;;4.30;;
20344;SDS011;10330;48.816;9.278;2023-02-04T08:23:11;9.27;;;3.50;;
20344;SDS011;10330;48.816;9.278;2023-02-04T08:25:50;12.68;;;3.20;;
20344;SDS011;10330;48.816;9.278;2023-02-04T08:28:31;10.63;;;3.97;;
20344;SDS011;10330;48.816;9.278;2023-02-04T08:30:57;10.55;;;2.97;;
20344;SDS011;10330;48.816;9.278;2023-02-04T08:37:11;9.48;;;2.80;;
20344;SDS011;10330;48.816;9.278;2023-02-04T08:39:38;10.55;;;3.17;;
20344;SDS011;10330;48.816;9.278;2023-02-04T08:42:08;11.75;;;3.72;;
20344;SDS011;10330;48.816;9.278;2023-02-04T08:52:27;18.30;;;6.40;;
20344;SDS011;10330;48.816;9.278;2023-02-04T08:54:59;18.38;;;3.92;;
20344;SDS011;10330;48.816;9.278;2023-02-04T08:57:26;15.85;;;3.45;;
20344;SDS011;10330;48.816;9.278;2023-02-04T08:59:52;18.63;;;5.95;;
20344;SDS011;10330;48.816;9.278;2023-02-04T09:02:19;11.90;;;4.43;;
20344;SDS011;10330;48.816;9.278;2023-02-04T09:04:46;15.57;;;6.88;;
20344;SDS011;10330;48.816;9.278;2023-02-04T09:07:12;14.80;;;5.38;;
20344;SDS011;10330;48.816;9.278;2023-02-04T09:09:39;16.85;;;4.70;;
20344;SDS011;10330;48.816;9.278;2023-02-04T09:12:05;20.63;;;6.28;;
20344;SDS011;10330;48.816;9.278;2023-02-04T09:14:31;20.00;;;3.83;;
20344;SDS011;10330;48.816;9.278;2023-02-04T09:16:58;9.77;;;3.45;;
20344;SDS011;10330;48.816;9.278;2023-02-04T09:19:30;13.00;;;4.03;;
20344;SDS011;10330;48.816;9.278;2023-02-04T09:25:43;18.58;;;3.92;;
20344;SDS011;10330;48.816;9.278;2023-02-04T09:28:10;13.57;;;4.57;;
20344;SDS011;10330;48.816;9.278;2023-02-04T09:30:38;14.65;;;4.75;;
20344;SDS011;10330;48.816;9.278;2023-02-04T09:33:05;17.02;;;4.80;;
20344;SDS011;10330;48.816;9.278;2023-02-04T09:35:32;16.13;;;5.07;;
20344;SDS011;10330;48.816;9.278;2023-02-04T09:37:59;10.00;;;3.50;;
20344;SDS011;10330;48.816;9.278;2023-02-04T09:40:27;11.18;;;4.72;;
20344;SDS011;10330;48.816;9.278;2023-02-04T09:42:56;17.02;;;4.72;;
20344;SDS011;10330;48.816;9.278;2023-02-04T09:45:25;17.58;;;6.85;;
20344;SDS011;10330;48.816;9.278;2023-02-04T09:47:53;15.98;;;4.57;;
20344;SDS011;10330;48.816;9.278;2023-02-04T09:50:24;19.85;;;4.18;;
20344;SDS011;10330;48.816;9.278;2023-02-04T09:52:53;6.05;;;3.20;;
20344;SDS011;10330;48.816;9.278;2023-02-04T09:55:23;16.48;;;3.17;;
20344;SDS011;10330;48.816;9.278;2023-02-04T09:57:53;15.30;;;3.50;;
20344;SDS011;10330;48.816;9.278;2023-02-04T10:00:21;9.38;;;2.88;;
20344;SDS011;10330;48.816;9.278;2023-02-04T10:02:52;12.77;;;2.78;;
20344;SDS011;10330;48.816;9.278;2023-02-04T10:05:20;8.05;;;2.50;;
20344;SDS011;10330;48.816;9.278;2023-02-04T10:07:55;7.68;;;2.97;;
20344;SDS011;10330;48.816;9.278;2023-02-04T10:10:23;7.43;;;3.05;;
20344;SDS011;10330;48.816;9.278;2023-02-04T10:12:56;8.10;;;2.42;;
20344;SDS011;10330;48.816;9.278;2023-02-04T10:15:26;14.70;;;2.83;;
20344;SDS011;10330;48.816;9.278;2023-02-04T10:17:54;11.90;;;3.72;;
20344;SDS011;10330;48.816;9.278;2023-02-04T10:20:30;9.05;;;2.25;;
20344;SDS011;10330;48.816;9.278;2023-02-04T10:22:57;14.73;;;3.45;;
20344;SDS011;10330;48.816;9.278;2023-02-04T10:25:24;12.82;;;3.28;;
20344;SDS011;10330;48.816;9.278;2023-02-04T10:30:31;7.63;;;2.30;;
20344;SDS011;10330;48.816;9.278;2023-02-04T10:39:50;14.90;;;2.65;;
20344;SDS011;10330;48.816;9.278;2023-02-04T10:49:52;12.40;;;2.38;;
20344;SDS011;10330;48.816;9.278;2023-02-04T10:52:56;15.63;;;2.90;;
20344;SDS011;10330;48.816;9.278;2023-02-04T11:06:04;9.48;;;2.47;;
20344;SDS011;10330;48.816;9.278;2023-02-04T11:12:17;7.85;;;1.95;;
20344;SDS011;10330;48.816;9.278;2023-02-04T11:14:55;2.65;;;1.70;;
20344;SDS011;10330;48.816;9.278;2023-02-04T11:17:32;11.13;;;2.53;;
20344;SDS011;10330;48.816;9.278;2023-02-04T11:20:15;9.50;;;2.63;;
20344;SDS011;10330;48.816;9.278;2023-02-04T11:22:55;11.35;;;2.30;;
20344;SDS011;10330;48.816;9.278;2023-02-04T11:25:34;11.20;;;2.25;;
20344;SDS011;10330;48.816;9.278;2023-02-04T11:28:14;18.90;;;2.80;;
20344;SDS011;10330;48.816;9.278;2023-02-04T11:30:57;12.90;;;3.17;;
20344;SDS011;10330;48.816;9.278;2023-02-04T11:33:38;10.15;;;3.08;;
20344;SDS011;10330;48.816;9.278;2023-02-04T11:36:08;13.43;;;3.30;;
20344;SDS011;10330;48.816;9.278;2023-02-04T11:38:35;18.58;;;2.92;;
20344;SDS011;10330;48.816;9.278;2023-02-04T11:41:03;16.38;;;2.85;;
20344;SDS011;10330;48.816;9.278;2023-02-04T11:43:33;15.15;;;2.55;;
20344;SDS011;10330;48.816;9.278;2023-02-04T11:46:04;13.57;;;3.00;;
20344;SDS011;10330;48.816;9.278;2023-02-04T11:48:42;11.98;;;2.30;;
20344;SDS011;10330;48.816;9.278;2023-02-04T11:51:16;12.25;;;2.20;;
20344;SDS011;10330;48.816;9.278;2023-02-04T11:53:49;7.95;;;2.58;;
20344;SDS011;10330;48.816;9.278;2023-02-04T11:56:16;10.75;;;3.00;;
20344;SDS011;10330;48.816;9.278;2023-02-04T11:58:46;19.15;;;2.17;;
20344;SDS011;10330;48.816;9.278;2023-02-04T12:01:18;13.45;;;2.85;;
20344;SDS011;10330;48.816;9.278;2023-02-04T12:03:50;12.85;;;2.50;;
20344;SDS011;10330;48.816;9.278;2023-02-04T12:06:23;8.65;;;2.35;;
20344;SDS011;10330;48.816;9.278;2023-02-04T12:09:03;5.78;;;2.42;;
20344;SDS011;10330;48.816;9.278;2023-02-04T12:11:56;10.77;;;2.50;;
20344;SDS011;10330;48.816;9.278;2023-02-04T12:14:37;8.32;;;1.70;;
20344;SDS011;10330;48.816;9.278;2023-02-04T12:19:52;26.63;;;4.93;;
20344;SDS011;10330;48.816;9.278;2023-02-04T12:22:18;11.65;;;2.40;;
20344;SDS011;10330;48.816;9.278;2023-02-04T12:24:44;10.57;;;2.47;;
20344;SDS011;10330;48.816;9.278;2023-02-04T12:27:11;13.27;;;2.55;;
20344;SDS011;10330;48.816;9.278;2023-02-04T12:29:37;8.95;;;1.80;;
20344;SDS011;10330;48.816;9.278;2023-02-04T12:32:04;10.60;;;2.13;;
20344;SDS011;10330;48.816;9.278;2023-02-04T12:37:27;10.73;;;2.17;;
20344;SDS011;10330;48.816;9.278;2023-02-04T12:42:48;6.07;;;1.63;;
20344;SDS011;10330;48.816;9.278;2023-02-04T12:53:43;10.85;;;2.08;;
20344;SDS011;10330;48.816;9.278;2023-02-04T12:56:19;10.02;;;3.10;;
20344;SDS011;10330;48.816;9.278;2023-02-04T13:18:49;21.95;;;4.10;;
20344;SDS011;10330;48.816;9.278;2023-02-04T13:42:30;13.25;;;3.67;;
20344;SDS011;10330;48.816;9.278;2023-02-04T13:44:57;10.27;;;2.10;;
20344;SDS011;10330;48.816;9.278;2023-02-04T13:47:38;4.82;;;2.25;;
20344;SDS011;10330;48.816;9.278;2023-02-04T13:50:08;10.52;;;2.90;;
20344;SDS011;10330;48.816;9.278;2023-02-04T14:27:12;4.78;;;1.40;;
20344;SDS011;10330;48.816;9.278;2023-02-04T14:50:22;13.82;;;2.08;;
20344;SDS011;10330;48.816;9.278;2023-02-04T14:53:18;6.00;;;1.65;;
20344;SDS011;10330;48.816;9.278;2023-02-04T14:59:45;7.60;;;2.45;;
20344;SDS011;10330;48.816;9.278;2023-02-04T15:09:55;7.95;;;1.90;;
20344;SDS011;10330;48.816;9.278;2023-02-04T15:12:35;4.78;;;1.67;;
20344;SDS011;10330;48.816;9.278;2023-02-04T15:19:40;5.45;;;1.85;;
20344;SDS011;10330;48.816;9.278;2023-02-04T15:34:59;9.23;;;1.58;;
20344;SDS011;10330;48.816;9.278;2023-02-04T15:37:29;5.38;;;1.50;;
20344;SDS011;10330;48.816;9.278;2023-02-04T15:51:04;7.70;;;2.55;;
20344;SDS011;10330;48.816;9.278;2023-02-04T15:54:27;11.93;;;2.28;;
20344;SDS011;10330;48.816;9.278;2023-02-04T15:57:56;9.75;;;1.95;;
20344;SDS011;10330;48.816;9.278;2023-02-04T16:08:28;2.47;;;1.48;;
20344;SDS011;10330;48.816;9.278;2023-02-04T16:11:25;10.82;;;2.83;;
20344;SDS011;10330;48.816;9.278;2023-02-04T16:21:38;10.57;;;2.78;;
20344;SDS011;10330;48.816;9.278;2023-02-04T16:40:09;7.22;;;2.35;;
20344;SDS011;10330;48.816;9.278;2023-02-04T16:43:39;12.10;;;2.03;;
20344;SDS011;10330;48.816;9.278;2023-02-04T16:53:25;6.88;;;2.42;;
20344;SDS011;10330;48.816;9.278;2023-02-04T16:55:54;7.53;;;2.45;;
20344;SDS011;10330;48.816;9.278;2023-02-04T16:58:27;7.30;;;3.08;;
20344;SDS011;10330;48.816;9.278;2023-02-04T17:00:58;6.90;;;1.90;;
20344;SDS011;10330;48.816;9.278;2023-02-04T17:03:44;9.05;;;2.22;;
20344;SDS011;10330;48.816;9.278;2023-02-04T17:06:24;7.82;;;2.90;;
20344;SDS011;10330;48.816;9.278;2023-02-04T17:08:51;12.10;;;4.07;;
20344;SDS011;10330;48.816;9.278;2023-02-04T17:11:17;11.50;;;4.13;;
20344;SDS011;10330;48.816;9.278;2023-02-04T17:14:03;19.98;;;4.90;;
20344;SDS011;10330;48.816;9.278;2023-02-04T17:16:31;23.73;;;3.78;;
20344;SDS011;10330;48.816;9.278;2023-02-04T17:18:57;11.35;;;2.85;;
20344;SDS011;10330;48.816;9.278;2023-02-04T17:21:25;28.05;;;8.85;;
20344;SDS011;10330;48.816;9.278;2023-02-04T17:23:52;7.93;;;3.67;;
20344;SDS011;10330;48.816;9.278;2023-02-04T17:26:20;12.48;;;3.80;;
20344;SDS011;10330;48.816;9.278;2023-02-04T17:28:47;6.65;;;2.50;;
20344;SDS011;10330;48.816;9.278;2023-02-04T17:31:15;35.30;;;9.75;;
20344;SDS011;10330;48.816;9.278;2023-02-04T17:33:41;12.43;;;4.18;;
20344;SDS011;10330;48.816;9.278;2023-02-04T17:36:08;19.75;;;6.90;;
20344;SDS011;10330;48.816;9.278;2023-02-04T17:38:38;11.75;;;3.10;;
20344;SDS011;10330;48.816;9.278;2023-02-04T17:41:04;5.97;;;2.50;;
20344;SDS011;10330;48.816;9.278;2023-02-04T17:43:30;16.50;;;4.10;;
20344;SDS011;10330;48.816;9.278;2023-02-04T17:45:56;17.25;;;5.35;;
20344;SDS011;10330;48.816;9.278;2023-02-04T17:48:23;15.90;;;3.80;;
20344;SDS011;10330;48.816;9.278;2023-02-04T17:50:49;7.47;;;3.05;;
20344;SDS011;10330;48.816;9.278;2023-02-04T17:53:17;25.55;;;3.13;;
20344;SDS011;10330;48.816;9.278;2023-02-04T17:55:45;14.88;;;3.65;;
20344;SDS011;10330;48.816;9.278;2023-02-04T17:58:13;11.23;;;3.33;;
20344;SDS011;10330;48.816;9.278;2023-02-04T18:00:49;17.10;;;4.13;;
20344;SDS011;10330;48.816;9.278;2023-02-04T18:03:18;8.35;;;2.97;;
20344;SDS011;10330;48.816;9.278;2023-02-04T18:05:47;17.73;;;3.85;;
20344;SDS011;10330;48.816;9.278;2023-02-04T18:08:20;11.07;;;5.32;;
20344;SDS011;10330;48.816;9.278;2023-02-04T18:10:52;12.30;;;4.07;;
20344;SDS011;10330;48.816;9.278;2023-02-04T18:13:38;8.70;;;3.88;;
20344;SDS011;10330;48.816;9.278;2023-02-04T18:18:56;22.08;;;5.13;;
20344;SDS011;10330;48.816;9.278;2023-02-04T18:21:39;12.57;;;4.75;;
20344;SDS011;10330;48.816;9.278;2023-02-04T18:26:52;12.82;;;3.90;;
20344;SDS011;10330;48.816;9.278;2023-02-04T18:29:25;14.60;;;5.00;;
20344;SDS011;10330;48.816;9.278;2023-02-04T18:34:49;11.20;;;4.80;;
20344;SDS011;10330;48.816;9.278;2023-02-04T18:37:19;11.80;;;5.82;;
20344;SDS011;10330;48.816;9.278;2023-02-04T18:39:47;20.45;;;6.65;;
20344;SDS011;10330;48.816;9.278;2023-02-04T18:42:17;13.07;;;5.13;;
20344;SDS011;10330;48.816;9.278;2023-02-04T18:44:49;28.55;;;6.25;;
20344;SDS011;10330;48.816;9.278;2023-02-04T18:47:25;28.05;;;11.85;;
20344;SDS011;10330;48.816;9.278;2023-02-04T18:50:00;35.45;;;12.85;;
20344;SDS011;10330;48.816;9.278;2023-02-04T18:52:40;17.02;;;6.75;;
20344;SDS011;10330;48.816;9.278;2023-02-04T18:55:17;15.88;;;6.82;;
20344;SDS011;10330;48.816;9.278;2023-02-04T18:58:01;14.13;;;5.65;;
20344;SDS011;10330;48.816;9.278;2023-02-04T19:15:10;18.73;;;5.18;;
20344;SDS011;10330;48.816;9.278;2023-02-04T19:32:49;16.77;;;5.85;;
20344;SDS011;10330;48.816;9.278;2023-02-04T19:47:58;16.25;;;5.78;;
20344;SDS011;10330;48.816;9.278;2023-02-04T19:50:46;14.50;;;6.53;;
20344;SDS011;10330;48.816;9.278;2023-02-04T19:53:30;23.45;;;7.00;;
20344;SDS011;10330;48.816;9.278;2023-02-04T21:10:40;18.13;;;5.82;;
20344;SDS011;10330;48.816;9.278;2023-02-04T21:13:31;15.95;;;5.30;;
20344;SDS011;10330;48.816;9.278;2023-02-04T21:16:27;11.63;;;4.88;;
20344;SDS011;10330;48.816;9.278;2023-02-04T21:27:46;8.57;;;5.15;;
20344;SDS011;10330;48.816;9.278;2023-02-04T21:37:06;11.43;;;5.05;;
20344;SDS011;10330;48.816;9.278;2023-02-04T21:51:15;21.67;;;6.55;;
20344;SDS011;10330;48.816;9.278;2023-02-04T21:54:16;15.77;;;6.90;;
20344;SDS011;10330;48.816;9.278;2023-02-04T21:57:05;11.38;;;5.45;;
20344;SDS011;10330;48.816;9.278;2023-02-04T21:59:55;18.27;;;6.25;;
20344;SDS011;10330;48.816;9.278;2023-02-04T22:02:33;14.20;;;5.30;;
20344;SDS011;10330;48.816;9.278;2023-02-04T22:13:02;20.02;;;8.35;;
20344;SDS011;10330;48.816;9.278;2023-02-04T22:16:18;23.55;;;8.48;;
20344;SDS011;10330;48.816;9.278;2023-02-04T22:18:54;11.73;;;5.65;;
20344;SDS011;10330;48.816;9.278;2023-02-04T22:21:27;16.98;;;5.60;;
20344;SDS011;10330;48.816;9.278;2023-02-04T22:23:56;17.88;;;6.22;;
20344;SDS011;10330;48.816;9.278;2023-02-04T22:26:25;10.35;;;6.10;;
20344;SDS011;10330;48.816;9.278;2023-02-04T22:29:01;12.80;;;5.68;;
20344;SDS011;10330;48.816;9.278;2023-02-04T22:31:39;10.65;;;4.55;;
20344;SDS011;10330;48.816;9.278;2023-02-04T22:34:06;14.00;;;5.07;;
20344;SDS011;10330;48.816;9.278;2023-02-04T22:36:33;9.93;;;4.93;;
20344;SDS011;10330;48.816;9.278;2023-02-04T22:39:17;11.57;;;4.80;;
20344;SDS011;10330;48.816;9.278;2023-02-04T22:41:56;15.30;;;4.97;;
20344;SDS011;10330;48.816;9.278;2023-02-04T22:44:28;11.32;;;5.55;;
20344;SDS011;10330;48.816;9.278;2023-02-04T22:47:18;17.83;;;5.80;;
20344;SDS011;10330;48.816;9.278;2023-02-04T23:16:36;11.93;;;5.00;;